createdAt,value
2023-02-11T00:00:02.720Z,411.42
2023-02-11T00:00:12.706Z,411.22
2023-02-11T00:00:22.703Z,411.18
2023-02-11T00:00:32.704Z,411.23
2023-02-11T00:00:42.758Z,411.21
2023-02-11T00:00:52.800Z,411.22
2023-02-11T00:01:02.711Z,411.18
2023-02-11T00:01:12.709Z,411.18
2023-02-11T00:01:22.709Z,411.19
2023-02-11T00:01:32.708Z,411.21
2023-02-11T00:01:42.718Z,411.29
2023-02-11T00:01:52.729Z,411.52
2023-02-11T00:02:02.793Z,411.49
2023-02-11T00:02:12.752Z,411.38
2023-02-11T00:02:22.740Z,411.35
2023-02-11T00:02:32.758Z,411.43
2023-02-11T00:02:42.713Z,411.41
2023-02-11T00:02:52.717Z,411.51
2023-02-11T00:03:02.774Z,411.55
2023-02-11T00:03:12.762Z,411.61
2023-02-11T00:03:22.757Z,411.74
2023-02-11T00:03:32.846Z,411.73
2023-02-11T00:03:42.825Z,411.64
2023-02-11T00:03:52.728Z,411.74
2023-02-11T00:04:02.726Z,411.73
2023-02-11T00:04:12.727Z,411.78
2023-02-11T00:04:22.722Z,411.80
2023-02-11T00:04:32.725Z,411.73
2023-02-11T00:04:42.726Z,411.78
2023-02-11T00:04:52.725Z,411.99
2023-02-11T00:05:02.729Z,412.04
2023-02-11T00:05:12.726Z,411.94
2023-02-11T00:05:22.730Z,412.04
2023-02-11T00:05:32.727Z,411.90
2023-02-11T00:05:42.732Z,411.72
2023-02-11T00:05:52.725Z,411.68
2023-02-11T00:06:02.731Z,411.55
2023-02-11T00:06:12.741Z,411.46
2023-02-11T00:06:22.741Z,411.54
2023-02-11T00:06:32.736Z,411.39
2023-02-11T00:06:42.739Z,411.38
2023-02-11T00:06:52.738Z,411.36
2023-02-11T00:07:02.740Z,411.30
2023-02-11T00:07:12.755Z,411.34
2023-02-11T00:07:22.738Z,411.61
2023-02-11T00:07:32.741Z,411.69
2023-02-11T00:07:42.740Z,411.67
2023-02-11T00:07:52.741Z,411.78
2023-02-11T00:08:02.745Z,411.94
2023-02-11T00:08:12.749Z,411.88
2023-02-11T00:08:22.742Z,411.94
2023-02-11T00:08:32.761Z,411.91
2023-02-11T00:08:42.748Z,411.82
2023-02-11T00:08:52.750Z,412.09
2023-02-11T00:09:02.760Z,412.25
2023-02-11T00:09:12.750Z,412.26
2023-02-11T00:09:22.754Z,412.37
2023-02-11T00:09:32.752Z,412.43
2023-02-11T00:09:42.751Z,412.49
2023-02-11T00:09:52.756Z,412.60
2023-02-11T00:10:02.780Z,412.51
2023-02-11T00:10:12.767Z,412.48
2023-02-11T00:10:22.754Z,412.45
2023-02-11T00:10:32.765Z,412.62
2023-02-11T00:10:42.758Z,412.93
2023-02-11T00:10:52.760Z,413.00
2023-02-11T00:11:02.755Z,413.01
2023-02-11T00:11:12.761Z,412.99
2023-02-11T00:11:22.760Z,412.98
2023-02-11T00:11:32.758Z,412.90
2023-02-11T00:11:42.777Z,413.01
2023-02-11T00:11:52.767Z,413.13
2023-02-11T00:12:02.760Z,413.21
2023-02-11T00:12:12.766Z,413.34
2023-02-11T00:12:22.764Z,413.49
2023-02-11T00:12:32.765Z,413.49
2023-02-11T00:12:42.781Z,413.70
2023-02-11T00:12:52.791Z,413.84
2023-02-11T00:13:02.770Z,413.88
2023-02-11T00:13:12.769Z,413.84
2023-02-11T00:13:22.773Z,413.87
2023-02-11T00:13:32.796Z,413.81
2023-02-11T00:13:42.772Z,413.68
2023-02-11T00:13:52.779Z,413.49
2023-02-11T00:14:02.770Z,413.63
2023-02-11T00:14:12.770Z,413.46
2023-02-11T00:14:22.770Z,413.38
2023-02-11T00:14:32.776Z,413.50
2023-02-11T00:14:42.776Z,413.43
2023-02-11T00:14:52.790Z,413.65
2023-02-11T00:15:02.785Z,413.76
2023-02-11T00:15:12.776Z,413.59
2023-02-11T00:15:22.780Z,413.46
2023-02-11T00:15:32.781Z,413.41
2023-02-11T00:15:42.781Z,413.42
2023-02-11T00:15:52.856Z,413.47
2023-02-11T00:16:02.814Z,413.56
2023-02-11T00:16:12.861Z,413.67
2023-02-11T00:16:22.967Z,413.63
2023-02-11T00:16:32.871Z,413.63
2023-02-11T00:16:42.892Z,413.70
2023-02-11T00:16:52.849Z,413.69
2023-02-11T00:17:02.858Z,413.75
2023-02-11T00:17:12.785Z,413.92
2023-02-11T00:17:22.789Z,414.05
2023-02-11T00:17:32.787Z,414.05
2023-02-11T00:17:42.788Z,414.14
2023-02-11T00:17:52.797Z,414.27
2023-02-11T00:18:02.789Z,414.29
2023-02-11T00:18:12.791Z,414.26
2023-02-11T00:18:22.795Z,414.20
2023-02-11T00:18:32.788Z,414.21
2023-02-11T00:18:42.793Z,414.37
2023-02-11T00:18:52.801Z,414.93
2023-02-11T00:19:02.808Z,415.05
2023-02-11T00:19:12.797Z,414.99
2023-02-11T00:19:22.796Z,414.99
2023-02-11T00:19:32.822Z,414.98
2023-02-11T00:19:42.800Z,414.99
2023-02-11T00:19:52.822Z,415.09
2023-02-11T00:20:02.804Z,415.19
2023-02-11T00:20:12.799Z,415.14
2023-02-11T00:20:22.799Z,415.03
2023-02-11T00:20:32.811Z,415.10
2023-02-11T00:20:42.806Z,415.22
2023-02-11T00:20:52.800Z,415.22
2023-02-11T00:21:02.801Z,415.21
2023-02-11T00:21:12.803Z,415.13
2023-02-11T00:21:22.805Z,414.94
2023-02-11T00:21:32.808Z,414.83
2023-02-11T00:21:42.807Z,414.92
2023-02-11T00:21:52.806Z,414.91
2023-02-11T00:22:02.810Z,414.93
2023-02-11T00:22:12.911Z,414.99
2023-02-11T00:22:22.834Z,415.02
2023-02-11T00:22:32.814Z,414.94
2023-02-11T00:22:42.816Z,414.89
2023-02-11T00:22:52.810Z,414.96
2023-02-11T00:23:02.812Z,414.89
2023-02-11T00:23:12.817Z,414.75
2023-02-11T00:23:22.797Z,414.91
2023-02-11T00:23:32.838Z,414.99
2023-02-11T00:23:42.831Z,415.03
2023-02-11T00:23:52.825Z,415.09
2023-02-11T00:24:02.824Z,415.14
2023-02-11T00:24:12.816Z,415.29
2023-02-11T00:24:22.816Z,415.42
2023-02-11T00:24:32.821Z,415.27
2023-02-11T00:24:42.833Z,415.15
2023-02-11T00:24:52.819Z,415.28
2023-02-11T00:25:02.821Z,415.41
2023-02-11T00:25:12.836Z,415.44
2023-02-11T00:25:22.829Z,415.30
2023-02-11T00:25:32.822Z,415.13
2023-02-11T00:25:42.852Z,415.16
2023-02-11T00:25:53.091Z,415.36
2023-02-11T00:26:02.826Z,415.49
2023-02-11T00:26:12.827Z,415.57
2023-02-11T00:26:22.829Z,415.58
2023-02-11T00:26:32.834Z,415.59
2023-02-11T00:26:42.828Z,415.49
2023-02-11T00:26:52.825Z,415.50
2023-02-11T00:27:02.829Z,415.65
2023-02-11T00:27:12.830Z,415.63
2023-02-11T00:27:22.825Z,415.82
2023-02-11T00:27:32.828Z,415.67
2023-02-11T00:27:42.841Z,415.53
2023-02-11T00:27:52.831Z,415.59
2023-02-11T00:28:02.876Z,415.53
2023-02-11T00:28:12.928Z,415.67
2023-02-11T00:28:22.844Z,415.70
2023-02-11T00:28:32.871Z,415.71
2023-02-11T00:28:42.834Z,415.76
2023-02-11T00:28:52.836Z,415.78
2023-02-11T00:29:02.837Z,415.72
2023-02-11T00:29:12.836Z,415.86
2023-02-11T00:29:22.837Z,415.76
2023-02-11T00:29:32.839Z,415.73
2023-02-11T00:29:42.843Z,415.73
2023-02-11T00:29:52.840Z,415.90
2023-02-11T00:30:02.855Z,415.87
2023-02-11T00:30:12.843Z,415.67
2023-02-11T00:30:22.844Z,415.47
2023-02-11T00:30:33.070Z,415.22
2023-02-11T00:30:42.974Z,415.07
2023-02-11T00:30:52.962Z,415.13
2023-02-11T00:31:02.956Z,414.93
2023-02-11T00:31:13.124Z,415.04
2023-02-11T00:31:23.003Z,415.10
2023-02-11T00:31:32.999Z,415.15
2023-02-11T00:31:43.004Z,415.23
2023-02-11T00:31:52.958Z,415.11
2023-02-11T00:32:02.892Z,414.88
2023-02-11T00:32:12.849Z,414.80
2023-02-11T00:32:22.848Z,414.90
2023-02-11T00:32:32.854Z,415.05
2023-02-11T00:32:42.854Z,415.29
2023-02-11T00:32:52.851Z,415.30
2023-02-11T00:33:02.852Z,415.30
2023-02-11T00:33:12.854Z,415.35
2023-02-11T00:33:22.849Z,415.32
2023-02-11T00:33:32.851Z,415.19
2023-02-11T00:33:42.857Z,415.23
2023-02-11T00:33:52.871Z,415.29
2023-02-11T00:34:02.864Z,415.39
2023-02-11T00:34:12.855Z,415.33
2023-02-11T00:34:22.853Z,415.47
2023-02-11T00:34:32.876Z,415.49
2023-02-11T00:34:42.868Z,415.36
2023-02-11T00:34:52.859Z,415.22
2023-02-11T00:35:02.860Z,415.18
2023-02-11T00:35:12.871Z,415.26
2023-02-11T00:35:22.860Z,415.00
2023-02-11T00:35:32.865Z,414.86
2023-02-11T00:35:42.865Z,414.83
2023-02-11T00:35:53.071Z,414.61
2023-02-11T00:36:02.867Z,414.50
2023-02-11T00:36:12.867Z,414.45
2023-02-11T00:36:22.861Z,414.36
2023-02-11T00:36:32.864Z,414.35
2023-02-11T00:36:42.867Z,414.50
2023-02-11T00:36:52.866Z,414.47
2023-02-11T00:37:02.860Z,414.50
2023-02-11T00:37:12.870Z,414.46
2023-02-11T00:37:22.867Z,414.41
2023-02-11T00:37:32.881Z,414.44
2023-02-11T00:37:42.875Z,414.47
2023-02-11T00:37:52.873Z,414.48
2023-02-11T00:38:02.876Z,414.35
2023-02-11T00:38:12.877Z,414.16
2023-02-11T00:38:22.873Z,414.05
2023-02-11T00:38:32.874Z,414.19
2023-02-11T00:38:42.873Z,414.25
2023-02-11T00:38:52.884Z,414.18
2023-02-11T00:39:02.880Z,414.11
2023-02-11T00:39:12.879Z,414.10
2023-02-11T00:39:22.878Z,413.88
2023-02-11T00:39:32.908Z,414.13
2023-02-11T00:39:42.877Z,414.37
2023-02-11T00:39:52.900Z,414.25
2023-02-11T00:40:05.040Z,414.18
2023-02-11T00:40:12.882Z,414.26
2023-02-11T00:40:22.886Z,414.23
2023-02-11T00:40:32.885Z,414.32
2023-02-11T00:40:42.884Z,414.51
2023-02-11T00:40:52.883Z,414.61
2023-02-11T00:41:02.888Z,414.63
2023-02-11T00:41:12.888Z,414.60
2023-02-11T00:41:22.885Z,414.37
2023-02-11T00:41:32.911Z,414.38
2023-02-11T00:41:42.885Z,414.26
2023-02-11T00:41:52.893Z,414.26
2023-02-11T00:42:02.899Z,414.24
2023-02-11T00:42:12.888Z,414.21
2023-02-11T00:42:22.892Z,414.18
2023-02-11T00:42:32.899Z,414.22
2023-02-11T00:42:42.891Z,414.32
2023-02-11T00:42:52.891Z,414.25
2023-02-11T00:43:02.893Z,414.30
2023-02-11T00:43:12.890Z,414.30
2023-02-11T00:43:22.891Z,414.36
2023-02-11T00:43:32.893Z,414.31
2023-02-11T00:43:42.892Z,414.26
2023-02-11T00:43:52.891Z,414.24
2023-02-11T00:44:02.901Z,414.26
2023-02-11T00:44:12.900Z,414.19
2023-02-11T00:44:22.899Z,414.22
2023-02-11T00:44:32.901Z,414.34
2023-02-11T00:44:42.899Z,414.32
2023-02-11T00:44:52.903Z,414.30
2023-02-11T00:45:02.904Z,414.36
2023-02-11T00:45:12.883Z,414.31
2023-02-11T00:45:22.899Z,414.51
2023-02-11T00:45:32.899Z,414.46
2023-02-11T00:45:42.901Z,414.10
2023-02-11T00:45:53.191Z,413.82
2023-02-11T00:46:02.943Z,413.80
2023-02-11T00:46:12.995Z,413.74
2023-02-11T00:46:22.942Z,413.84
2023-02-11T00:46:32.958Z,413.98
2023-02-11T00:46:42.969Z,413.98
2023-02-11T00:46:52.908Z,414.01
2023-02-11T00:47:02.916Z,414.00
2023-02-11T00:47:12.909Z,413.87
2023-02-11T00:47:22.905Z,414.00
2023-02-11T00:47:32.912Z,414.05
2023-02-11T00:47:42.908Z,414.03
2023-02-11T00:47:52.919Z,414.07
2023-02-11T00:48:02.907Z,414.18
2023-02-11T00:48:12.908Z,414.25
2023-02-11T00:48:22.908Z,414.36
2023-02-11T00:48:32.908Z,414.37
2023-02-11T00:48:42.895Z,414.46
2023-02-11T00:48:52.909Z,414.55
2023-02-11T00:49:02.916Z,414.41
2023-02-11T00:49:12.910Z,414.50
2023-02-11T00:49:22.912Z,414.33
2023-02-11T00:49:32.916Z,414.18
2023-02-11T00:49:42.919Z,414.29
2023-02-11T00:49:52.911Z,414.49
2023-02-11T00:50:02.919Z,414.40
2023-02-11T00:50:12.919Z,414.39
2023-02-11T00:50:22.919Z,414.36
2023-02-11T00:50:32.919Z,414.32
2023-02-11T00:50:42.921Z,414.47
2023-02-11T00:50:52.918Z,414.44
2023-02-11T00:51:02.920Z,414.40
2023-02-11T00:51:12.921Z,414.53
2023-02-11T00:51:22.927Z,414.56
2023-02-11T00:51:32.919Z,414.78
2023-02-11T00:51:42.924Z,414.88
2023-02-11T00:51:52.926Z,414.86
2023-02-11T00:52:02.932Z,414.99
2023-02-11T00:52:12.934Z,415.08
2023-02-11T00:52:22.926Z,415.39
2023-02-11T00:52:32.925Z,415.54
2023-02-11T00:52:42.924Z,415.40
2023-02-11T00:52:52.925Z,415.49
2023-02-11T00:53:02.946Z,415.62
2023-02-11T00:53:12.935Z,415.79
2023-02-11T00:53:22.930Z,415.85
2023-02-11T00:53:32.932Z,416.03
2023-02-11T00:53:42.933Z,416.16
2023-02-11T00:53:52.933Z,416.28
2023-02-11T00:54:02.936Z,416.15
2023-02-11T00:54:12.938Z,416.27
2023-02-11T00:54:22.935Z,416.68
2023-02-11T00:54:32.933Z,416.77
2023-02-11T00:54:42.939Z,416.81
2023-02-11T00:54:52.953Z,416.74
2023-02-11T00:55:02.945Z,416.64
2023-02-11T00:55:12.939Z,416.53
2023-02-11T00:55:22.940Z,416.62
2023-02-11T00:55:32.939Z,416.68
2023-02-11T00:55:42.946Z,416.78
2023-02-11T00:55:52.946Z,416.86
2023-02-11T00:56:02.942Z,416.89
2023-02-11T00:56:12.953Z,416.91
2023-02-11T00:56:22.951Z,417.05
2023-02-11T00:56:32.947Z,417.05
2023-02-11T00:56:42.960Z,417.06
2023-02-11T00:56:52.948Z,416.96
2023-02-11T00:57:02.950Z,416.89
2023-02-11T00:57:12.950Z,416.92
2023-02-11T00:57:22.956Z,416.89
2023-02-11T00:57:32.953Z,417.21
2023-02-11T00:57:42.955Z,417.14
2023-02-11T00:57:52.954Z,417.40
2023-02-11T00:58:02.954Z,417.49
2023-02-11T00:58:12.953Z,417.54
2023-02-11T00:58:22.961Z,417.42
2023-02-11T00:58:32.956Z,417.64
2023-02-11T00:58:42.956Z,417.66
2023-02-11T00:58:52.962Z,417.59
2023-02-11T00:59:02.955Z,417.61
2023-02-11T00:59:12.959Z,417.47
2023-02-11T00:59:22.972Z,417.46
2023-02-11T00:59:32.990Z,417.48
2023-02-11T00:59:42.979Z,417.52
2023-02-11T00:59:52.969Z,417.61
2023-02-11T01:00:02.994Z,417.59
2023-02-11T01:00:12.969Z,417.49
2023-02-11T01:00:22.964Z,417.54
2023-02-11T01:00:32.972Z,417.51
2023-02-11T01:00:42.971Z,417.35
2023-02-11T01:00:52.972Z,417.26
2023-02-11T01:01:03.010Z,417.12
2023-02-11T01:01:13.020Z,417.20
2023-02-11T01:01:23.014Z,417.22
2023-02-11T01:01:33.066Z,417.25
2023-02-11T01:01:43.072Z,417.28
2023-02-11T01:01:52.976Z,417.26
2023-02-11T01:02:02.978Z,417.21
2023-02-11T01:02:12.985Z,417.30
2023-02-11T01:02:22.982Z,417.32
2023-02-11T01:02:32.984Z,417.30
2023-02-11T01:02:42.981Z,417.38
2023-02-11T01:02:52.980Z,417.24
2023-02-11T01:03:02.986Z,417.24
2023-02-11T01:03:12.991Z,417.46
2023-02-11T01:03:22.984Z,417.54
2023-02-11T01:03:32.987Z,417.63
2023-02-11T01:03:42.987Z,417.62
2023-02-11T01:03:52.993Z,417.43
2023-02-11T01:04:02.992Z,417.28
2023-02-11T01:04:12.986Z,417.14
2023-02-11T01:04:22.973Z,417.26
2023-02-11T01:04:32.992Z,417.30
2023-02-11T01:04:43.000Z,417.20
2023-02-11T01:04:53.054Z,417.14
2023-02-11T01:05:03.060Z,417.22
2023-02-11T01:05:13.017Z,416.93
2023-02-11T01:05:23.030Z,416.65
2023-02-11T01:05:33.028Z,416.44
2023-02-11T01:05:42.996Z,416.54
2023-02-11T01:05:53.109Z,416.49
2023-02-11T01:06:02.996Z,416.49
2023-02-11T01:06:13.000Z,416.50
2023-02-11T01:06:23.000Z,416.48
2023-02-11T01:06:33.010Z,416.42
2023-02-11T01:06:43.001Z,416.27
2023-02-11T01:06:53.002Z,416.19
2023-02-11T01:07:03.012Z,416.07
2023-02-11T01:07:13.011Z,416.11
2023-02-11T01:07:23.003Z,415.92
2023-02-11T01:07:33.007Z,415.79
2023-02-11T01:07:43.002Z,415.93
2023-02-11T01:07:53.006Z,415.83
2023-02-11T01:08:03.019Z,415.90
2023-02-11T01:08:13.005Z,415.87
2023-02-11T01:08:23.016Z,415.90
2023-02-11T01:08:33.006Z,415.88
2023-02-11T01:08:43.009Z,415.89
2023-02-11T01:08:53.019Z,415.97
2023-02-11T01:09:03.008Z,415.97
2023-02-11T01:09:13.010Z,415.79
2023-02-11T01:09:23.012Z,415.74
2023-02-11T01:09:33.008Z,415.74
2023-02-11T01:09:43.023Z,415.57
2023-02-11T01:09:53.014Z,415.48
2023-02-11T01:10:03.018Z,415.61
2023-02-11T01:10:13.015Z,415.77
2023-02-11T01:10:23.018Z,415.78
2023-02-11T01:10:33.029Z,415.66
2023-02-11T01:10:43.012Z,415.58
2023-02-11T01:10:53.016Z,415.55
2023-02-11T01:11:03.018Z,415.37
2023-02-11T01:11:13.026Z,415.31
2023-02-11T01:11:23.018Z,415.24
2023-02-11T01:11:33.024Z,415.08
2023-02-11T01:11:43.025Z,414.87
2023-02-11T01:11:53.020Z,414.71
2023-02-11T01:12:03.020Z,414.51
2023-02-11T01:12:13.022Z,414.46
2023-02-11T01:12:23.021Z,414.62
2023-02-11T01:12:35.263Z,414.76
2023-02-11T01:12:43.026Z,414.81
2023-02-11T01:12:53.025Z,414.81
2023-02-11T01:13:03.027Z,414.69
2023-02-11T01:13:13.023Z,414.77
2023-02-11T01:13:23.029Z,414.74
2023-02-11T01:13:33.030Z,414.75
2023-02-11T01:13:43.048Z,414.78
2023-02-11T01:13:53.029Z,414.86
2023-02-11T01:14:03.026Z,414.89
2023-02-11T01:14:13.028Z,414.84
2023-02-11T01:14:23.029Z,414.91
2023-02-11T01:14:33.036Z,414.83
2023-02-11T01:14:43.049Z,414.81
2023-02-11T01:14:53.036Z,414.97
2023-02-11T01:15:03.072Z,414.97
2023-02-11T01:15:13.036Z,414.97
2023-02-11T01:15:23.036Z,415.05
2023-02-11T01:15:33.064Z,414.96
2023-02-11T01:15:43.083Z,414.83
2023-02-11T01:15:53.358Z,414.76
2023-02-11T01:16:03.134Z,414.75
2023-02-11T01:16:13.108Z,414.88
2023-02-11T01:16:23.038Z,414.87
2023-02-11T01:16:33.043Z,414.85
2023-02-11T01:16:43.041Z,414.71
2023-02-11T01:16:53.044Z,414.71
2023-02-11T01:17:03.040Z,414.82
2023-02-11T01:17:13.029Z,414.83
2023-02-11T01:17:23.043Z,414.81
2023-02-11T01:17:33.044Z,414.67
2023-02-11T01:17:43.045Z,414.61
2023-02-11T01:17:53.047Z,414.53
2023-02-11T01:18:03.046Z,414.48
2023-02-11T01:18:13.046Z,414.62
2023-02-11T01:18:23.046Z,414.65
2023-02-11T01:18:33.049Z,414.60
2023-02-11T01:18:43.049Z,414.68
2023-02-11T01:18:53.051Z,414.74
2023-02-11T01:19:03.051Z,414.67
2023-02-11T01:19:13.051Z,414.86
2023-02-11T01:19:23.052Z,415.05
2023-02-11T01:19:33.059Z,414.91
2023-02-11T01:19:43.065Z,414.96
2023-02-11T01:19:53.053Z,414.95
2023-02-11T01:20:03.057Z,414.95
2023-02-11T01:20:13.053Z,415.06
2023-02-11T01:20:23.053Z,415.03
2023-02-11T01:20:33.053Z,415.03
2023-02-11T01:20:43.062Z,415.08
2023-02-11T01:20:53.058Z,415.14
2023-02-11T01:21:03.061Z,415.16
2023-02-11T01:21:13.082Z,415.13
2023-02-11T01:21:23.060Z,415.18
2023-02-11T01:21:33.061Z,415.21
2023-02-11T01:21:43.048Z,415.31
2023-02-11T01:21:53.062Z,415.26
2023-02-11T01:22:03.062Z,415.20
2023-02-11T01:22:13.066Z,415.21
2023-02-11T01:22:23.059Z,415.25
2023-02-11T01:22:33.062Z,415.22
2023-02-11T01:22:43.062Z,415.11
2023-02-11T01:22:53.063Z,415.04
2023-02-11T01:23:03.062Z,415.16
2023-02-11T01:23:13.068Z,415.18
2023-02-11T01:23:23.062Z,415.23
2023-02-11T01:23:33.065Z,415.27
2023-02-11T01:23:43.074Z,415.21
2023-02-11T01:23:53.077Z,415.32
2023-02-11T01:24:03.068Z,415.40
2023-02-11T01:24:13.073Z,415.50
2023-02-11T01:24:23.084Z,415.41
2023-02-11T01:24:33.076Z,415.47
2023-02-11T01:24:43.090Z,415.59
2023-02-11T01:24:53.077Z,415.76
2023-02-11T01:25:03.081Z,415.73
2023-02-11T01:25:13.077Z,415.86
2023-02-11T01:25:23.077Z,416.05
2023-02-11T01:25:33.087Z,416.16
2023-02-11T01:25:43.084Z,416.18
2023-02-11T01:25:53.321Z,416.23
2023-02-11T01:26:03.087Z,416.25
2023-02-11T01:26:13.085Z,416.19
2023-02-11T01:26:23.079Z,416.23
2023-02-11T01:26:33.083Z,416.37
2023-02-11T01:26:43.084Z,416.53
2023-02-11T01:26:53.083Z,416.52
2023-02-11T01:27:03.091Z,416.52
2023-02-11T01:27:13.250Z,416.62
2023-02-11T01:27:23.086Z,416.98
2023-02-11T01:27:33.090Z,416.97
2023-02-11T01:27:43.089Z,416.88
2023-02-11T01:27:53.091Z,416.93
2023-02-11T01:28:03.149Z,416.98
2023-02-11T01:28:13.121Z,416.94
2023-02-11T01:28:23.200Z,417.11
2023-02-11T01:28:33.148Z,417.17
2023-02-11T01:28:43.105Z,417.19
2023-02-11T01:28:53.076Z,417.19
2023-02-11T01:29:03.091Z,417.06
2023-02-11T01:29:13.092Z,417.00
2023-02-11T01:29:23.107Z,416.81
2023-02-11T01:29:33.105Z,416.79
2023-02-11T01:29:43.109Z,416.81
2023-02-11T01:29:53.103Z,416.82
2023-02-11T01:30:03.108Z,416.80
2023-02-11T01:30:13.088Z,416.80
2023-02-11T01:30:23.098Z,416.78
2023-02-11T01:30:33.097Z,416.65
2023-02-11T01:30:43.108Z,416.60
2023-02-11T01:30:53.166Z,416.61
2023-02-11T01:31:03.153Z,416.71
2023-02-11T01:31:13.150Z,416.69
2023-02-11T01:31:23.156Z,416.59
2023-02-11T01:31:33.235Z,416.52
2023-02-11T01:31:43.162Z,416.37
2023-02-11T01:31:53.137Z,416.36
2023-02-11T01:32:03.140Z,416.29
2023-02-11T01:32:13.158Z,416.24
2023-02-11T01:32:23.108Z,416.25
2023-02-11T01:32:33.113Z,416.21
2023-02-11T01:32:43.115Z,416.24
2023-02-11T01:32:53.117Z,416.27
2023-02-11T01:33:03.113Z,416.20
2023-02-11T01:33:13.115Z,416.12
2023-02-11T01:33:23.113Z,416.09
2023-02-11T01:33:33.115Z,416.11
2023-02-11T01:33:43.126Z,416.10
2023-02-11T01:33:53.113Z,415.91
2023-02-11T01:34:03.118Z,416.00
2023-02-11T01:34:13.122Z,415.95
2023-02-11T01:34:23.120Z,415.89
2023-02-11T01:34:33.119Z,415.87
2023-02-11T01:34:43.153Z,415.86
2023-02-11T01:34:53.118Z,415.89
2023-02-11T01:35:03.127Z,415.82
2023-02-11T01:35:13.120Z,415.78
2023-02-11T01:35:23.126Z,415.80
2023-02-11T01:35:33.122Z,415.83
2023-02-11T01:35:43.124Z,415.92
2023-02-11T01:35:53.470Z,415.94
2023-02-11T01:36:03.144Z,415.80
2023-02-11T01:36:13.134Z,415.80
2023-02-11T01:36:23.129Z,415.66
2023-02-11T01:36:33.131Z,415.57
2023-02-11T01:36:43.129Z,415.51
2023-02-11T01:36:53.131Z,415.44
2023-02-11T01:37:03.132Z,415.61
2023-02-11T01:37:13.130Z,415.71
2023-02-11T01:37:23.134Z,415.80
2023-02-11T01:37:33.132Z,415.84
2023-02-11T01:37:43.135Z,415.88
2023-02-11T01:37:53.139Z,415.85
2023-02-11T01:38:03.122Z,415.84
2023-02-11T01:38:13.136Z,415.74
2023-02-11T01:38:23.156Z,415.72
2023-02-11T01:38:33.143Z,415.70
2023-02-11T01:38:43.143Z,415.54
2023-02-11T01:38:53.140Z,415.54
2023-02-11T01:39:03.143Z,415.51
2023-02-11T01:39:13.145Z,415.52
2023-02-11T01:39:23.146Z,415.66
2023-02-11T01:39:33.147Z,415.89
2023-02-11T01:39:43.144Z,416.03
2023-02-11T01:39:53.174Z,416.01
2023-02-11T01:40:03.153Z,415.84
2023-02-11T01:40:13.152Z,415.72
2023-02-11T01:40:23.148Z,415.68
2023-02-11T01:40:33.156Z,415.58
2023-02-11T01:40:43.151Z,415.38
2023-02-11T01:40:53.149Z,415.22
2023-02-11T01:41:03.161Z,415.18
2023-02-11T01:41:13.156Z,415.22
2023-02-11T01:41:23.151Z,415.29
2023-02-11T01:41:33.155Z,415.34
2023-02-11T01:41:43.154Z,415.42
2023-02-11T01:41:53.162Z,415.48
2023-02-11T01:42:03.167Z,415.48
2023-02-11T01:42:13.159Z,415.52
2023-02-11T01:42:23.159Z,415.50
2023-02-11T01:42:33.160Z,415.55
2023-02-11T01:42:43.165Z,415.62
2023-02-11T01:42:53.163Z,415.63
2023-02-11T01:43:03.161Z,415.48
2023-02-11T01:43:13.165Z,415.64
2023-02-11T01:43:23.149Z,415.66
2023-02-11T01:43:33.169Z,415.81
2023-02-11T01:43:43.186Z,416.08
2023-02-11T01:43:53.165Z,416.35
2023-02-11T01:44:03.167Z,416.36
2023-02-11T01:44:13.166Z,416.53
2023-02-11T01:44:23.165Z,416.59
2023-02-11T01:44:33.178Z,416.54
2023-02-11T01:44:43.186Z,416.52
2023-02-11T01:44:53.175Z,416.64
2023-02-11T01:45:03.172Z,416.73
2023-02-11T01:45:13.171Z,416.74
2023-02-11T01:45:23.180Z,416.71
2023-02-11T01:45:33.173Z,416.78
2023-02-11T01:45:43.176Z,416.92
2023-02-11T01:45:53.352Z,416.98
2023-02-11T01:46:03.191Z,417.07
2023-02-11T01:46:13.194Z,417.14
2023-02-11T01:46:23.234Z,417.12
2023-02-11T01:46:33.282Z,417.18
2023-02-11T01:46:43.221Z,417.16
2023-02-11T01:46:53.195Z,417.22
2023-02-11T01:47:03.175Z,417.24
2023-02-11T01:47:13.182Z,417.17
2023-02-11T01:47:23.180Z,417.12
2023-02-11T01:47:33.174Z,417.14
2023-02-11T01:47:43.176Z,417.14
2023-02-11T01:47:53.181Z,417.08
2023-02-11T01:48:03.186Z,417.04
2023-02-11T01:48:13.183Z,417.05
2023-02-11T01:48:23.184Z,416.94
2023-02-11T01:48:33.179Z,416.86
2023-02-11T01:48:43.181Z,416.68
2023-02-11T01:48:53.254Z,416.54
2023-02-11T01:49:03.253Z,416.44
2023-02-11T01:49:13.211Z,416.34
2023-02-11T01:49:23.224Z,416.20
2023-02-11T01:49:33.266Z,416.06
2023-02-11T01:49:43.194Z,415.85
2023-02-11T01:49:53.183Z,415.95
2023-02-11T01:50:03.207Z,415.94
2023-02-11T01:50:13.189Z,415.98
2023-02-11T01:50:23.185Z,415.97
2023-02-11T01:50:33.186Z,416.10
2023-02-11T01:50:43.187Z,416.09
2023-02-11T01:50:53.174Z,416.01
2023-02-11T01:51:03.191Z,416.12
2023-02-11T01:51:13.188Z,416.15
2023-02-11T01:51:23.190Z,416.29
2023-02-11T01:51:33.196Z,416.27
2023-02-11T01:51:43.202Z,416.24
2023-02-11T01:51:53.193Z,416.18
2023-02-11T01:52:03.200Z,416.16
2023-02-11T01:52:13.197Z,416.23
2023-02-11T01:52:23.192Z,416.08
2023-02-11T01:52:33.194Z,416.03
2023-02-11T01:52:43.194Z,415.93
2023-02-11T01:52:53.179Z,415.84
2023-02-11T01:53:03.194Z,415.73
2023-02-11T01:53:13.195Z,415.66
2023-02-11T01:53:23.196Z,415.71
2023-02-11T01:53:33.195Z,415.65
2023-02-11T01:53:43.200Z,415.65
2023-02-11T01:53:53.200Z,415.68
2023-02-11T01:54:03.205Z,415.71
2023-02-11T01:54:13.202Z,415.78
2023-02-11T01:54:23.202Z,415.84
2023-02-11T01:54:33.203Z,415.88
2023-02-11T01:54:43.215Z,415.87
2023-02-11T01:54:53.205Z,415.83
2023-02-11T01:55:03.205Z,415.66
2023-02-11T01:55:13.203Z,415.55
2023-02-11T01:55:23.209Z,415.54
2023-02-11T01:55:33.206Z,415.80
2023-02-11T01:55:43.207Z,416.01
2023-02-11T01:55:53.222Z,416.10
2023-02-11T01:56:03.210Z,416.17
2023-02-11T01:56:13.209Z,416.12
2023-02-11T01:56:23.211Z,416.04
2023-02-11T01:56:33.212Z,416.06
2023-02-11T01:56:43.213Z,416.08
2023-02-11T01:56:53.214Z,416.10
2023-02-11T01:57:03.220Z,416.26
2023-02-11T01:57:13.217Z,416.33
2023-02-11T01:57:23.225Z,416.15
2023-02-11T01:57:33.221Z,416.00
2023-02-11T01:57:43.220Z,416.16
2023-02-11T01:57:53.220Z,416.22
2023-02-11T01:58:03.227Z,416.19
2023-02-11T01:58:13.220Z,416.16
2023-02-11T01:58:23.222Z,416.16
2023-02-11T01:58:33.224Z,416.22
2023-02-11T01:58:43.223Z,416.36
2023-02-11T01:58:53.244Z,416.46
2023-02-11T01:59:03.228Z,416.42
2023-02-11T01:59:13.234Z,416.35
2023-02-11T01:59:23.225Z,416.23
2023-02-11T01:59:33.229Z,416.14
2023-02-11T01:59:43.265Z,416.13
2023-02-11T01:59:53.227Z,416.07
2023-02-11T02:00:03.244Z,416.14
2023-02-11T02:00:13.249Z,416.16
2023-02-11T02:00:23.234Z,416.14
2023-02-11T02:00:33.237Z,416.13
2023-02-11T02:00:43.234Z,416.17
2023-02-11T02:00:53.232Z,416.13
2023-02-11T02:01:03.238Z,416.04
2023-02-11T02:01:13.263Z,415.91
2023-02-11T02:01:23.285Z,415.79
2023-02-11T02:01:33.268Z,415.88
2023-02-11T02:01:43.345Z,415.91
2023-02-11T02:01:53.331Z,415.88
2023-02-11T02:02:03.237Z,415.83
2023-02-11T02:02:13.238Z,415.82
2023-02-11T02:02:23.237Z,415.82
2023-02-11T02:02:33.287Z,416.03
2023-02-11T02:02:43.241Z,416.32
2023-02-11T02:02:53.245Z,416.53
2023-02-11T02:03:03.241Z,416.76
2023-02-11T02:03:13.283Z,416.83
2023-02-11T02:03:23.267Z,416.94
2023-02-11T02:03:33.272Z,416.99
2023-02-11T02:03:43.310Z,417.02
2023-02-11T02:03:53.318Z,417.12
2023-02-11T02:04:03.312Z,417.09
2023-02-11T02:04:13.251Z,416.92
2023-02-11T02:04:23.249Z,416.99
2023-02-11T02:04:33.251Z,417.23
2023-02-11T02:04:43.250Z,417.41